createdAt,value
2018-07-21T00:02:44.800Z,58.30
2018-07-21T00:12:52.900Z,58.90
2018-07-21T00:17:57.517Z,59.10
2018-07-21T00:23:01.966Z,59.40
2018-07-21T00:28:06.291Z,59.80
2018-07-21T00:33:10.503Z,60.50
2018-07-21T00:38:14.876Z,61.00
2018-07-21T00:43:18.968Z,60.90
2018-07-21T00:48:23.343Z,61.70
2018-07-21T00:53:31.420Z,62.20
2018-07-21T01:03:39.933Z,63.80
2018-07-21T01:08:44.356Z,63.80
2018-07-21T01:13:48.448Z,64.00
2018-07-21T01:18:52.499Z,64.70
2018-07-21T01:23:56.940Z,65.00
2018-07-21T01:29:00.948Z,65.10
2018-07-21T01:34:05.417Z,65.30
2018-07-21T01:39:11.323Z,65.50
2018-07-21T01:44:15.764Z,65.80
2018-07-21T01:49:20.108Z,65.60
2018-07-21T01:54:24.404Z,65.50
2018-07-21T01:59:28.724Z,65.60
2018-07-21T02:04:32.780Z,65.60
2018-07-21T02:09:37.897Z,65.80
2018-07-21T02:14:42.031Z,65.50
2018-07-21T02:19:46.404Z,65.70
2018-07-21T02:24:50.904Z,65.80
2018-07-21T02:29:55.329Z,64.50
2018-07-21T02:34:59.765Z,64.20
2018-07-21T02:40:04.207Z,64.20
2018-07-21T02:45:08.252Z,63.70
2018-07-21T02:50:12.389Z,63.60
2018-07-21T02:55:16.743Z,63.60
2018-07-21T03:00:21.195Z,63.50
2018-07-21T03:05:25.544Z,63.40
2018-07-21T03:10:30.012Z,64.00
2018-07-21T03:15:34.968Z,63.70
2018-07-21T03:20:39.309Z,63.20
2018-07-21T03:25:43.849Z,62.10
2018-07-21T03:30:48.193Z,61.70
2018-07-21T03:35:52.615Z,61.20
2018-07-21T03:40:58.070Z,61.00
2018-07-21T03:46:02.498Z,60.80
2018-07-21T03:51:06.591Z,60.60
2018-07-21T03:56:11.060Z,60.00
2018-07-21T04:01:15.463Z,60.40
2018-07-21T04:06:19.548Z,60.30
2018-07-21T04:11:23.907Z,60.30
2018-07-21T04:16:28.015Z,60.00
2018-07-21T04:21:32.286Z,60.20
2018-07-21T04:26:37.515Z,59.70
2018-07-21T04:31:41.924Z,59.60
2018-07-21T04:36:46.480Z,59.30
2018-07-21T04:41:50.799Z,59.10
2018-07-21T04:46:55.261Z,57.80
2018-07-21T04:51:59.312Z,56.40
2018-07-21T04:57:03.835Z,54.90
2018-07-21T05:02:08.221Z,54.10
2018-07-21T05:07:12.659Z,53.80
2018-07-21T05:12:16.782Z,53.30
2018-07-21T05:17:20.912Z,52.20
2018-07-21T05:22:25.880Z,51.90
2018-07-21T05:27:31.781Z,51.50
2018-07-21T05:32:36.183Z,51.60
2018-07-21T05:37:40.204Z,51.00
2018-07-21T05:42:44.289Z,50.60
2018-07-21T05:47:48.737Z,49.80
2018-07-21T05:52:53.026Z,49.40
2018-07-21T05:57:57.556Z,50.10
2018-07-21T06:03:01.717Z,50.80
2018-07-21T06:08:06.212Z,51.60
2018-07-21T06:13:10.545Z,51.10
2018-07-21T06:18:14.668Z,51.40
2018-07-21T06:23:18.731Z,51.90
2018-07-21T06:28:23.727Z,51.30
2018-07-21T06:33:28.093Z,52.20
2018-07-21T06:38:32.538Z,52.70
2018-07-21T06:43:36.874Z,52.30
2018-07-21T06:48:41.326Z,52.10
2018-07-21T06:53:45.478Z,52.20
2018-07-21T06:58:49.880Z,52.10
2018-07-21T07:03:54.203Z,52.50
2018-07-21T07:08:58.212Z,52.70
2018-07-21T07:14:02.556Z,52.60
2018-07-21T07:19:06.683Z,52.00
2018-07-21T07:24:11.159Z,50.80
2018-07-21T07:29:15.618Z,50.30
2018-07-21T07:34:19.667Z,50.50
2018-07-21T07:39:23.776Z,50.00
2018-07-21T07:44:27.844Z,50.50
2018-07-21T07:49:32.258Z,49.50
2018-07-21T07:54:36.647Z,48.60
2018-07-21T07:59:40.686Z,48.70
2018-07-21T08:04:44.744Z,48.80
2018-07-21T08:09:49.227Z,48.50
2018-07-21T08:14:53.291Z,47.70
2018-07-21T08:19:57.707Z,47.80
2018-07-21T08:25:01.840Z,48.60
2018-07-21T08:30:07.785Z,48.00
2018-07-21T08:35:11.859Z,47.40
2018-07-21T08:40:15.908Z,48.60
2018-07-21T08:45:20.084Z,47.80
2018-07-21T08:50:24.400Z,47.80
2018-07-21T08:55:28.433Z,47.90
2018-07-21T09:05:37.255Z,46.60
2018-07-21T09:10:41.284Z,46.60
2018-07-21T09:15:45.596Z,46.30
2018-07-21T09:20:49.683Z,46.80
2018-07-21T09:25:54.336Z,44.40
2018-07-21T09:30:58.424Z,45.00
2018-07-21T09:36:02.812Z,46.20
2018-07-21T09:41:07.289Z,45.30
2018-07-21T09:46:11.302Z,44.60
2018-07-21T09:51:15.702Z,45.90
2018-07-21T09:56:19.735Z,46.40
2018-07-21T10:01:23.772Z,45.70
2018-07-21T10:06:27.791Z,45.40
2018-07-21T10:11:31.892Z,45.10
2018-07-21T10:16:36.351Z,44.00
2018-07-21T10:21:41.821Z,45.60
2018-07-21T10:26:51.576Z,45.70
2018-07-21T10:31:55.614Z,45.50
2018-07-21T10:36:59.936Z,45.00
2018-07-21T10:42:04.337Z,45.70
2018-07-21T10:47:08.636Z,45.30
2018-07-21T10:52:13.468Z,45.10
2018-07-21T10:57:17.519Z,45.20
2018-07-21T11:02:22.245Z,44.80
2018-07-21T11:07:26.273Z,44.70
2018-07-21T11:12:30.400Z,44.20
2018-07-21T11:17:34.828Z,43.70
2018-07-21T11:22:39.157Z,43.50
2018-07-21T11:27:43.691Z,44.30
2018-07-21T11:32:49.438Z,44.00
2018-07-21T11:37:53.789Z,44.00
2018-07-21T11:42:57.945Z,44.30
2018-07-21T11:48:02.563Z,43.20
2018-07-21T11:53:06.588Z,43.90
2018-07-21T11:58:10.675Z,44.00
2018-07-21T12:03:15.848Z,43.60
2018-07-21T12:08:19.933Z,42.90
2018-07-21T12:13:24.638Z,43.20
2018-07-21T12:18:28.620Z,43.00
2018-07-21T12:23:32.694Z,41.70
2018-07-21T12:28:36.751Z,41.80
2018-07-21T12:33:41.238Z,41.00
2018-07-21T12:38:45.242Z,40.20
2018-07-21T12:43:49.303Z,38.80
2018-07-21T12:48:53.662Z,39.10
2018-07-21T12:53:57.717Z,39.00
2018-07-21T12:59:02.068Z,38.20
2018-07-21T13:04:06.428Z,38.60
2018-07-21T13:09:11.865Z,37.50
2018-07-21T13:14:15.948Z,38.30
2018-07-21T13:19:20.370Z,38.30
2018-07-21T13:24:24.510Z,38.30
2018-07-21T13:29:28.943Z,38.50
2018-07-21T13:34:33.004Z,38.90
2018-07-21T13:39:37.517Z,40.40
2018-07-21T13:44:41.566Z,40.70
2018-07-21T13:49:45.643Z,41.30
2018-07-21T13:54:50.227Z,41.60
2018-07-21T13:59:54.409Z,40.80
2018-07-21T14:04:58.425Z,41.20
2018-07-21T14:10:03.069Z,41.90
2018-07-21T14:15:07.174Z,41.10
2018-07-21T14:20:11.557Z,40.30
2018-07-21T14:25:15.684Z,40.70
2018-07-21T14:30:19.708Z,41.00
2018-07-21T14:35:23.806Z,41.20
2018-07-21T14:40:27.889Z,40.90
2018-07-21T14:45:31.978Z,41.90
2018-07-21T14:50:36.092Z,42.90
2018-07-21T14:55:40.179Z,43.50
2018-07-21T15:00:44.367Z,41.90
2018-07-21T15:05:49.089Z,42.20
2018-07-21T15:10:53.208Z,42.60
2018-07-21T15:15:57.412Z,43.20
2018-07-21T15:21:01.552Z,43.70
2018-07-21T15:26:05.900Z,44.30
2018-07-21T15:31:10.057Z,44.60
2018-07-21T15:41:18.256Z,46.70
2018-07-21T15:46:22.307Z,47.10
2018-07-21T15:51:26.641Z,46.60
2018-07-21T15:56:30.768Z,47.00
2018-07-21T16:01:34.867Z,46.60
2018-07-21T16:06:38.908Z,46.50
2018-07-21T16:11:43.349Z,47.10
2018-07-21T16:16:47.444Z,46.80
2018-07-21T16:21:51.504Z,47.20
2018-07-21T16:26:55.561Z,47.60
2018-07-21T16:31:59.602Z,46.90
2018-07-21T16:37:03.705Z,47.30
2018-07-21T16:45:43.379Z,48.90
2018-07-21T16:50:48.140Z,50.50
2018-07-21T16:55:52.501Z,48.60
2018-07-21T17:00:56.815Z,51.20
2018-07-21T17:11:04.762Z,47.30
2018-07-21T17:16:09.250Z,46.70
2018-07-21T17:21:13.878Z,46.00
2018-07-21T17:26:18.570Z,45.60
2018-07-21T17:31:23.100Z,45.00
2018-07-21T17:36:28.372Z,45.70
2018-07-21T17:41:32.611Z,45.00
2018-07-21T17:46:36.755Z,44.90
2018-07-21T17:51:42.930Z,44.80
2018-07-21T17:56:48.012Z,45.50
2018-07-21T18:01:52.462Z,43.10
2018-07-21T18:06:56.583Z,43.90
2018-07-21T18:12:00.767Z,43.80
2018-07-21T18:17:05.347Z,43.40
2018-07-21T18:22:09.564Z,44.70
2018-07-21T18:27:14.588Z,44.50
2018-07-21T18:32:19.961Z,44.30
2018-07-21T18:37:24.176Z,45.20
2018-07-21T18:42:28.437Z,46.00
2018-07-21T18:47:32.597Z,46.60
2018-07-21T18:52:36.941Z,46.80
2018-07-21T18:57:41.566Z,47.40
2018-07-21T19:02:46.101Z,47.30
2018-07-21T19:07:50.936Z,47.50
2018-07-21T19:12:55.078Z,47.90
2018-07-21T19:17:59.582Z,48.20
2018-07-21T19:23:03.836Z,48.60
2018-07-21T19:28:08.605Z,49.50
2018-07-21T19:33:13.377Z,50.00
2018-07-21T19:38:17.763Z,50.70
2018-07-21T19:43:21.846Z,50.60
2018-07-21T19:48:26.000Z,49.70
2018-07-21T19:53:30.550Z,48.70
2018-07-21T19:58:35.498Z,47.70
2018-07-21T20:03:40.322Z,46.50
2018-07-21T20:08:44.957Z,45.90
2018-07-21T20:13:49.512Z,45.20
2018-07-21T20:18:53.675Z,45.00
2018-07-21T20:23:58.526Z,45.20
2018-07-21T20:29:03.160Z,44.90
2018-07-21T20:34:07.850Z,44.70
2018-07-21T20:39:12.480Z,45.10
2018-07-21T20:44:17.626Z,44.70
2018-07-21T20:51:40.331Z,44.70
2018-07-21T20:56:44.683Z,44.10
2018-07-21T21:01:49.221Z,44.70
2018-07-21T21:06:53.405Z,45.70
2018-07-21T21:11:57.868Z,46.50
2018-07-21T21:17:02.350Z,47.50
2018-07-21T21:22:06.757Z,47.90
2018-07-21T21:27:11.880Z,48.20
2018-07-21T21:32:16.420Z,48.60
2018-07-21T21:37:20.940Z,48.80
2018-07-21T21:42:25.283Z,48.80
2018-07-21T21:47:30.075Z,49.30
2018-07-21T21:52:34.241Z,49.60
2018-07-21T21:57:38.365Z,49.70
2018-07-21T22:02:43.631Z,49.90
2018-07-21T22:07:48.085Z,50.40
2018-07-21T22:12:52.314Z,50.80
2018-07-21T22:17:56.454Z,51.20
2018-07-21T22:23:00.584Z,51.60
2018-07-21T22:28:04.812Z,51.70
2018-07-21T22:33:08.973Z,52.10
2018-07-21T22:38:13.439Z,52.10
2018-07-21T22:43:17.973Z,52.60
2018-07-21T22:48:22.177Z,52.00
2018-07-21T22:53:28.179Z,52.00
2018-07-21T22:58:32.295Z,51.80
2018-07-21T23:03:36.390Z,51.60
2018-07-21T23:08:43.194Z,51.50
2018-07-21T23:13:47.570Z,51.30
2018-07-21T23:18:52.259Z,51.40
2018-07-21T23:23:56.351Z,51.60
2018-07-21T23:29:00.417Z,52.20
2018-07-21T23:34:04.654Z,52.80
2018-07-21T23:39:10.463Z,54.50
2018-07-21T23:44:14.850Z,55.60
2018-07-21T23:49:19.268Z,56.30
2018-07-21T23:54:24.953Z,57.60
2018-07-21T23:59:29.138Z,57.90
